Warson Woods, Missouri
Current Conditions -  °F | °C
As of 7:51 AM on Wednesday 22 Oct 2014 (Local Time) from KSTL Reporting Station
Clear Clear  
Wind Chill: 42°   Ceiling: Unl
Heat Index: 45°   Visibility: 10mi
Dew Point: 39°   Wind: 6mph
Humidity: 80%   Direction: 70°ENE
Pressure: 30.3"   Gusts: NA
Location:  38.5796°N, 90.4197°W
Report Text: KSTL 221251Z 07005KT 10SM CLR 07/04 A3030 RMK AO2 SLP262 T00720039
Loading
Personal Weather Stations






























Interactive Weather Map
Tropical Storm Tracking
New forecast layout! Learn more

10-Day Weather Forecast

Advertisements
Track Severe Weather on mobile